createdAt,value
2023-12-23T00:00:47.944Z,80.69
2023-12-23T00:01:48.712Z,80.58
2023-12-23T00:02:48.170Z,80.58
2023-12-23T00:03:48.148Z,79.55
2023-12-23T00:04:47.813Z,79.45
2023-12-23T00:05:47.816Z,80.07
2023-12-23T00:06:47.787Z,79.80
2023-12-23T00:07:48.178Z,79.97
2023-12-23T00:08:47.791Z,80.07
2023-12-23T00:09:47.800Z,80.07
2023-12-23T00:10:47.804Z,80.07
2023-12-23T00:11:47.814Z,79.25
2023-12-23T00:12:47.804Z,80.21
2023-12-23T00:13:47.867Z,79.86
2023-12-23T00:14:47.747Z,80.07
2023-12-23T00:15:47.769Z,79.97
2023-12-23T00:16:47.730Z,80.18
2023-12-23T00:17:50.407Z,80.28
2023-12-23T00:18:49.093Z,78.83
2023-12-23T00:19:47.808Z,80.11
2023-12-23T00:20:47.744Z,80.11
2023-12-23T00:21:47.692Z,80.04
2023-12-23T00:22:47.704Z,80.11
2023-12-23T00:23:47.778Z,79.49
2023-12-23T00:24:47.646Z,78.66
2023-12-23T00:25:47.689Z,79.18
2023-12-23T00:26:47.664Z,78.25
2023-12-23T00:27:48.049Z,78.97
2023-12-23T00:28:47.777Z,78.45
2023-12-23T00:29:47.659Z,79.59
2023-12-23T00:30:47.768Z,78.97
2023-12-23T00:31:47.683Z,79.18
2023-12-23T00:32:47.731Z,77.63
2023-12-23T00:33:47.682Z,77.94
2023-12-23T00:34:47.674Z,78.39
2023-12-23T00:35:47.578Z,77.94
2023-12-23T00:36:47.620Z,77.73
2023-12-23T00:37:47.749Z,78.25
2023-12-23T00:38:47.594Z,78.05
2023-12-23T00:39:47.560Z,78.05
2023-12-23T00:40:47.572Z,78.35
2023-12-23T00:41:47.518Z,77.98
2023-12-23T00:42:47.513Z,78.14
2023-12-23T00:43:47.596Z,78.39
2023-12-23T00:44:47.567Z,77.87
2023-12-23T00:45:47.504Z,78.49
2023-12-23T00:46:47.537Z,77.46
2023-12-23T00:47:47.559Z,78.49
2023-12-23T00:48:47.569Z,77.67
2023-12-23T00:49:47.547Z,77.98
2023-12-23T00:50:47.510Z,78.49
2023-12-23T00:51:47.454Z,78.08
2023-12-23T00:52:47.516Z,77.46
2023-12-23T00:53:49.063Z,77.77
2023-12-23T00:54:47.507Z,77.46
2023-12-23T00:55:47.494Z,77.15
2023-12-23T00:56:47.441Z,77.67
2023-12-23T00:57:47.607Z,77.56
2023-12-23T00:58:47.493Z,78.39
2023-12-23T00:59:47.402Z,78.59
2023-12-23T01:00:47.427Z,76.70
2023-12-23T01:01:47.403Z,77.36
2023-12-23T01:02:47.439Z,77.15
2023-12-23T01:03:47.404Z,77.15
2023-12-23T01:04:47.420Z,77.15
2023-12-23T01:05:47.363Z,77.42
2023-12-23T01:06:47.372Z,78.39
2023-12-23T01:07:47.586Z,77.56
2023-12-23T01:08:47.333Z,77.46
2023-12-23T01:09:47.340Z,77.77
2023-12-23T01:10:47.394Z,77.77
2023-12-23T01:11:47.400Z,78.25
2023-12-23T01:12:47.362Z,78.56
2023-12-23T01:13:47.476Z,78.59
2023-12-23T01:14:47.303Z,77.53
2023-12-23T01:15:47.311Z,76.90
2023-12-23T01:16:47.991Z,76.70
2023-12-23T01:17:47.560Z,77.11
2023-12-23T01:18:47.463Z,77.22
2023-12-23T01:19:47.291Z,77.46
2023-12-23T01:20:47.265Z,77.84
2023-12-23T01:21:47.266Z,77.53
2023-12-23T01:22:47.243Z,77.87
2023-12-23T01:23:47.280Z,77.73
2023-12-23T01:24:47.232Z,78.45
2023-12-23T01:25:47.343Z,78.14
2023-12-23T01:26:47.214Z,78.14
2023-12-23T01:27:47.414Z,78.77
2023-12-23T01:28:47.297Z,77.84
2023-12-23T01:29:47.208Z,78.05
2023-12-23T01:30:47.261Z,78.66
2023-12-23T01:31:47.266Z,78.14
2023-12-23T01:32:47.324Z,77.94
2023-12-23T01:33:47.429Z,78.35
2023-12-23T01:34:47.255Z,78.77
2023-12-23T01:35:47.155Z,79.18
2023-12-23T01:36:47.165Z,79.49
2023-12-23T01:37:47.333Z,79.08
2023-12-23T01:38:47.170Z,79.94
2023-12-23T01:39:47.132Z,78.91
2023-12-23T01:40:47.228Z,78.18
2023-12-23T01:41:47.130Z,80.25
2023-12-23T01:42:47.135Z,80.04
2023-12-23T01:43:47.209Z,79.90
2023-12-23T01:44:47.102Z,80.25
2023-12-23T01:45:47.093Z,80.56
2023-12-23T01:46:47.132Z,80.87
2023-12-23T01:47:47.306Z,81.07
2023-12-23T01:48:47.213Z,81.07
2023-12-23T01:49:47.116Z,82.52
2023-12-23T01:50:47.061Z,83.14
2023-12-23T01:51:47.121Z,83.39
2023-12-23T01:52:47.132Z,83.55
2023-12-23T01:53:47.046Z,83.59
2023-12-23T01:54:47.047Z,84.11
2023-12-23T01:55:47.024Z,84.00
2023-12-23T01:56:47.012Z,84.52
2023-12-23T01:57:47.099Z,84.31
2023-12-23T01:58:47.018Z,84.31
2023-12-23T01:59:47.045Z,84.83
2023-12-23T02:00:47.028Z,84.94
2023-12-23T02:01:47.107Z,84.73
2023-12-23T02:02:47.176Z,84.94
2023-12-23T02:03:47.084Z,85.04
2023-12-23T02:04:47.003Z,84.97
2023-12-23T02:05:47.090Z,84.73
2023-12-23T02:06:46.963Z,85.04
2023-12-23T02:07:47.251Z,85.24
2023-12-23T02:08:46.977Z,85.35
2023-12-23T02:09:46.924Z,85.24
2023-12-23T02:10:46.969Z,85.04
2023-12-23T02:11:46.912Z,84.83
2023-12-23T02:12:47.889Z,85.24
2023-12-23T02:13:46.974Z,85.24
2023-12-23T02:14:46.948Z,84.94
2023-12-23T02:15:46.928Z,85.04
2023-12-23T02:16:46.899Z,85.49
2023-12-23T02:17:46.983Z,85.14
2023-12-23T02:18:46.983Z,85.24
2023-12-23T02:19:46.892Z,85.35
2023-12-23T02:20:46.895Z,85.35
2023-12-23T02:21:46.859Z,85.24
2023-12-23T02:22:46.969Z,85.24
2023-12-23T02:23:50.081Z,85.45
2023-12-23T02:24:46.821Z,85.24
2023-12-23T02:25:46.839Z,84.52
2023-12-23T02:26:47.260Z,83.49
2023-12-23T02:27:46.823Z,84.11
2023-12-23T02:28:46.852Z,83.18
2023-12-23T02:29:46.803Z,83.70
2023-12-23T02:30:46.870Z,84.00
2023-12-23T02:31:46.902Z,83.97
2023-12-23T02:32:47.043Z,83.80
2023-12-23T02:33:46.811Z,84.52
2023-12-23T02:34:46.813Z,83.59
2023-12-23T02:35:46.837Z,83.80
2023-12-23T02:36:46.748Z,82.83
2023-12-23T02:37:46.777Z,82.93
2023-12-23T02:38:46.800Z,82.83
2023-12-23T02:39:46.722Z,82.73
2023-12-23T02:40:46.740Z,81.90
2023-12-23T02:41:46.712Z,82.73
2023-12-23T02:42:46.710Z,82.52
2023-12-23T02:43:47.806Z,82.73
2023-12-23T02:44:47.243Z,83.14
2023-12-23T02:45:46.727Z,82.93
2023-12-23T02:46:46.713Z,83.76
2023-12-23T02:47:47.036Z,83.45
2023-12-23T02:48:46.766Z,82.83
2023-12-23T02:49:46.664Z,83.18
2023-12-23T02:50:46.635Z,83.18
2023-12-23T02:51:46.698Z,83.14
2023-12-23T02:52:46.697Z,82.35
2023-12-23T02:53:46.681Z,82.21
2023-12-23T02:54:46.611Z,82.93
2023-12-23T02:55:46.693Z,82.87
2023-12-23T02:56:46.620Z,83.18
2023-12-23T02:57:46.616Z,82.76
2023-12-23T02:58:46.676Z,82.93
2023-12-23T02:59:46.580Z,83.80
2023-12-23T03:00:46.625Z,83.90
2023-12-23T03:01:46.615Z,83.59
2023-12-23T03:02:46.680Z,84.00
2023-12-23T03:03:46.629Z,84.21
2023-12-23T03:04:46.626Z,83.49
2023-12-23T03:05:46.557Z,84.11
2023-12-23T03:06:46.548Z,84.63
2023-12-23T03:07:46.533Z,84.31
2023-12-23T03:08:46.642Z,84.42
2023-12-23T03:09:46.512Z,84.63
2023-12-23T03:10:46.558Z,84.31
2023-12-23T03:11:46.544Z,84.31
2023-12-23T03:12:46.651Z,84.63
2023-12-23T03:13:46.521Z,84.42
2023-12-23T03:14:46.474Z,84.63
2023-12-23T03:15:46.489Z,84.31
2023-12-23T03:16:46.494Z,84.63
2023-12-23T03:17:46.509Z,83.53
2023-12-23T03:18:46.664Z,83.94
2023-12-23T03:19:46.497Z,84.63
2023-12-23T03:20:46.437Z,83.42
2023-12-23T03:21:46.439Z,84.05
2023-12-23T03:22:46.534Z,83.53
2023-12-23T03:23:46.453Z,83.84
2023-12-23T03:24:46.412Z,83.90
2023-12-23T03:25:46.535Z,84.11
2023-12-23T03:26:46.396Z,84.21
2023-12-23T03:27:46.497Z,84.05
2023-12-23T03:28:46.448Z,83.90
2023-12-23T03:29:46.380Z,83.28
2023-12-23T03:30:46.405Z,84.05
2023-12-23T03:31:46.488Z,84.00
2023-12-23T03:32:46.411Z,83.94
2023-12-23T03:33:46.398Z,84.00
2023-12-23T03:34:46.361Z,83.70
2023-12-23T03:35:46.360Z,83.73
2023-12-23T03:36:46.337Z,83.70
2023-12-23T03:37:46.485Z,83.90
2023-12-23T03:38:46.347Z,83.90
2023-12-23T03:39:46.371Z,84.63
2023-12-23T03:40:46.353Z,83.90
2023-12-23T03:41:46.300Z,83.90
2023-12-23T03:42:46.407Z,82.87
2023-12-23T03:43:46.341Z,83.70
2023-12-23T03:44:46.415Z,83.70
2023-12-23T03:45:46.265Z,83.90
2023-12-23T03:46:46.272Z,84.15
2023-12-23T03:47:46.271Z,83.18
2023-12-23T03:48:46.308Z,84.00
2023-12-23T03:49:46.312Z,82.76
2023-12-23T03:50:46.255Z,83.59
2023-12-23T03:51:46.268Z,83.18
2023-12-23T03:52:46.348Z,82.66
2023-12-23T03:53:46.229Z,82.87
2023-12-23T03:54:46.252Z,82.87
2023-12-23T03:55:46.212Z,83.28
2023-12-23T03:56:49.160Z,82.87
2023-12-23T03:57:46.184Z,83.07
2023-12-23T03:58:46.299Z,83.34
2023-12-23T03:59:46.200Z,83.04
2023-12-23T04:00:46.234Z,83.18
2023-12-23T04:01:46.247Z,82.52
2023-12-23T04:02:46.171Z,82.52
2023-12-23T04:03:46.198Z,82.10
2023-12-23T04:04:46.241Z,82.52
2023-12-23T04:05:46.215Z,82.42
2023-12-23T04:06:46.221Z,82.31
2023-12-23T04:07:46.183Z,82.21
2023-12-23T04:08:46.137Z,82.62
2023-12-23T04:09:46.113Z,83.34
2023-12-23T04:10:46.127Z,82.69
2023-12-23T04:11:46.087Z,82.69
2023-12-23T04:12:46.823Z,82.79
2023-12-23T04:13:46.128Z,81.38
2023-12-23T04:14:46.080Z,80.76
2023-12-23T04:15:46.072Z,80.76
2023-12-23T04:16:46.428Z,81.11
2023-12-23T04:17:46.149Z,81.49
2023-12-23T04:18:46.123Z,81.73
2023-12-23T04:19:46.044Z,82.15
2023-12-23T04:20:46.037Z,82.21
2023-12-23T04:21:46.057Z,83.14
2023-12-23T04:22:46.081Z,82.83
2023-12-23T04:23:46.030Z,82.73
2023-12-23T04:24:46.325Z,82.42
2023-12-23T04:25:46.005Z,82.93
2023-12-23T04:26:45.985Z,83.14
2023-12-23T04:27:45.979Z,83.86
2023-12-23T04:28:46.056Z,83.86
2023-12-23T04:29:45.969Z,83.18
2023-12-23T04:30:46.049Z,83.14
2023-12-23T04:31:46.043Z,84.31
2023-12-23T04:32:46.136Z,84.52
2023-12-23T04:33:46.037Z,84.52
2023-12-23T04:34:46.036Z,84.73
2023-12-23T04:35:45.935Z,84.63
2023-12-23T04:36:46.360Z,85.24
2023-12-23T04:37:46.191Z,85.86
2023-12-23T04:38:45.937Z,85.66
2023-12-23T04:39:45.982Z,85.97
2023-12-23T04:40:45.959Z,86.01
2023-12-23T04:41:46.498Z,86.18
2023-12-23T04:42:45.908Z,87.41
2023-12-23T04:43:46.045Z,86.83
2023-12-23T04:44:45.883Z,87.00
2023-12-23T04:45:45.858Z,86.90
2023-12-23T04:46:45.863Z,87.00
2023-12-23T04:47:45.983Z,87.68
2023-12-23T04:48:45.889Z,87.41
2023-12-23T04:49:45.852Z,87.52
2023-12-23T04:50:45.835Z,88.55
2023-12-23T04:51:45.830Z,88.34
2023-12-23T04:52:45.844Z,88.34
2023-12-23T04:53:45.840Z,88.34
2023-12-23T04:54:45.841Z,88.82
2023-12-23T04:55:45.858Z,88.34
2023-12-23T04:56:45.782Z,88.76
2023-12-23T04:57:45.783Z,88.86
2023-12-23T04:58:45.853Z,88.96
2023-12-23T04:59:45.773Z,89.38
2023-12-23T05:00:45.785Z,90.10
2023-12-23T05:01:45.794Z,90.52
2023-12-23T05:02:45.762Z,90.31
2023-12-23T05:03:45.805Z,90.00
2023-12-23T05:04:45.747Z,90.62
2023-12-23T05:05:45.811Z,90.62
2023-12-23T05:06:45.730Z,91.17
2023-12-23T05:07:45.776Z,90.97
2023-12-23T05:08:45.731Z,91.69
2023-12-23T05:09:45.718Z,92.11
2023-12-23T05:10:45.778Z,92.00
2023-12-23T05:11:45.728Z,91.80
2023-12-23T05:12:45.731Z,91.80
2023-12-23T05:13:45.721Z,92.52
2023-12-23T05:14:45.678Z,92.77
2023-12-23T05:15:45.714Z,93.08
2023-12-23T05:16:45.667Z,93.08
2023-12-23T05:17:45.716Z,93.14
2023-12-23T05:18:45.759Z,92.42
2023-12-23T05:19:45.753Z,92.87
2023-12-23T05:20:46.108Z,93.04
2023-12-23T05:21:45.666Z,93.66
2023-12-23T05:22:45.648Z,93.97
2023-12-23T05:23:45.719Z,93.87
2023-12-23T05:24:45.610Z,93.66
2023-12-23T05:25:45.639Z,93.55
2023-12-23T05:26:45.598Z,92.77
2023-12-23T05:27:45.604Z,93.18
2023-12-23T05:28:45.616Z,93.60
2023-12-23T05:29:45.565Z,93.49
2023-12-23T05:30:45.615Z,93.70
2023-12-23T05:31:45.629Z,94.32
2023-12-23T05:32:45.612Z,94.89
2023-12-23T05:33:45.668Z,95.19
2023-12-23T05:34:45.557Z,95.29
2023-12-23T05:35:45.523Z,95.29
2023-12-23T05:36:45.522Z,95.29
2023-12-23T05:37:45.560Z,95.61
2023-12-23T05:38:45.551Z,95.81
2023-12-23T05:39:45.543Z,95.86
2023-12-23T05:40:45.522Z,96.54
2023-12-23T05:41:45.495Z,96.44
2023-12-23T05:42:45.497Z,96.27
2023-12-23T05:43:45.635Z,96.27
2023-12-23T05:44:45.474Z,96.48
2023-12-23T05:45:45.473Z,96.79
2023-12-23T05:46:45.473Z,97.06
2023-12-23T05:47:45.508Z,97.72
2023-12-23T05:48:45.553Z,97.72
2023-12-23T05:49:45.462Z,97.31
2023-12-23T05:50:45.442Z,97.41
2023-12-23T05:51:45.409Z,97.41
2023-12-23T05:52:45.522Z,97.93
2023-12-23T05:53:45.428Z,97.62
2023-12-23T05:54:45.452Z,97.83
2023-12-23T05:55:45.448Z,97.93
2023-12-23T05:56:45.474Z,98.24
2023-12-23T05:57:45.423Z,98.13
2023-12-23T05:58:45.472Z,97.93
2023-12-23T05:59:45.953Z,97.93
2023-12-23T06:00:45.446Z,97.83
2023-12-23T06:01:45.471Z,97.93
2023-12-23T06:02:45.462Z,97.93
2023-12-23T06:03:45.880Z,98.44
2023-12-23T06:04:45.398Z,98.55
2023-12-23T06:05:45.385Z,98.34
2023-12-23T06:06:45.342Z,98.91
2023-12-23T06:07:45.400Z,98.70
2023-12-23T06:08:45.849Z,98.91
2023-12-23T06:09:45.298Z,99.38
2023-12-23T06:10:50.980Z,99.32
2023-12-23T06:11:46.333Z,99.22
2023-12-23T06:12:45.297Z,99.52
2023-12-23T06:13:45.385Z,99.11
2023-12-23T06:14:45.251Z,99.38
2023-12-23T06:15:45.273Z,98.65
2023-12-23T06:16:45.304Z,98.91
2023-12-23T06:17:45.271Z,99.32
2023-12-23T06:18:45.488Z,99.73
2023-12-23T06:19:46.250Z,99.94
2023-12-23T06:20:45.921Z,99.99
2023-12-23T06:21:45.219Z,99.99
2023-12-23T06:22:45.218Z,99.99
2023-12-23T06:23:45.238Z,99.90
2023-12-23T06:24:45.198Z,99.94
2023-12-23T06:25:45.218Z,99.79
2023-12-23T06:26:46.249Z,99.48
2023-12-23T06:27:45.670Z,99.48
2023-12-23T06:28:45.208Z,99.48
2023-12-23T06:29:45.261Z,99.99
2023-12-23T06:30:45.254Z,99.99
2023-12-23T06:31:45.271Z,99.99
2023-12-23T06:32:45.172Z,99.99
2023-12-23T06:33:45.691Z,99.99
2023-12-23T06:34:45.156Z,99.99
2023-12-23T06:35:45.153Z,99.99
2023-12-23T06:36:45.144Z,99.99
2023-12-23T06:37:45.134Z,99.99
2023-12-23T06:38:45.182Z,99.99
2023-12-23T06:39:45.112Z,99.99
2023-12-23T06:40:45.237Z,99.99
2023-12-23T06:41:47.927Z,99.99
2023-12-23T06:42:45.132Z,99.99
2023-12-23T06:43:51.709Z,99.99
2023-12-23T06:44:46.303Z,99.99
2023-12-23T06:45:45.061Z,99.99
2023-12-23T06:46:45.111Z,99.99
2023-12-23T06:47:45.160Z,99.99
2023-12-23T06:48:45.224Z,99.99
2023-12-23T06:49:45.356Z,99.99
2023-12-23T06:50:45.087Z,99.99
2023-12-23T06:51:45.024Z,99.99
2023-12-23T06:52:45.037Z,99.99
2023-12-23T06:53:45.028Z,99.99
2023-12-23T06:54:44.997Z,99.99
2023-12-23T06:55:45.010Z,99.99
2023-12-23T06:56:44.982Z,99.99
2023-12-23T06:57:44.976Z,99.99
2023-12-23T06:58:45.070Z,99.99
2023-12-23T06:59:44.975Z,99.99
2023-12-23T07:00:45.031Z,99.99
2023-12-23T07:01:45.051Z,99.99
2023-12-23T07:02:44.969Z,99.99
2023-12-23T07:03:45.423Z,99.99
2023-12-23T07:04:44.997Z,99.99
2023-12-23T07:05:45.092Z,99.99
2023-12-23T07:06:44.931Z,99.99
2023-12-23T07:07:44.936Z,99.99
2023-12-23T07:08:45.080Z,99.99
2023-12-23T07:09:47.124Z,99.99
2023-12-23T07:10:44.922Z,99.99
2023-12-23T07:11:44.894Z,99.99
2023-12-23T07:12:44.882Z,99.99
2023-12-23T07:13:44.924Z,99.99
2023-12-23T07:14:44.880Z,99.99
2023-12-23T07:15:44.875Z,99.99
2023-12-23T07:16:44.952Z,99.99
2023-12-23T07:17:44.994Z,99.99
2023-12-23T07:18:45.070Z,99.99
2023-12-23T07:19:44.943Z,99.99
2023-12-23T07:20:44.844Z,99.99
2023-12-23T07:21:44.817Z,99.99
2023-12-23T07:22:44.842Z,99.99
2023-12-23T07:23:44.831Z,99.99
2023-12-23T07:24:44.799Z,99.99
2023-12-23T07:25:44.864Z,99.99
2023-12-23T07:26:44.787Z,99.99
2023-12-23T07:27:44.850Z,99.99
2023-12-23T07:28:44.880Z,99.99
2023-12-23T07:29:48.006Z,99.99
2023-12-23T07:30:44.804Z,99.99
2023-12-23T07:31:44.822Z,99.99
2023-12-23T07:32:44.791Z,99.99
2023-12-23T07:33:45.080Z,99.99
2023-12-23T07:34:44.740Z,99.99
2023-12-23T07:35:44.752Z,99.99
2023-12-23T07:36:44.722Z,99.99
2023-12-23T07:37:44.770Z,99.99
2023-12-23T07:38:44.724Z,99.99
2023-12-23T07:39:44.693Z,99.99
2023-12-23T07:40:44.749Z,99.99
2023-12-23T07:41:44.683Z,99.99
2023-12-23T07:42:44.699Z,99.99
2023-12-23T07:43:44.756Z,99.99
2023-12-23T07:44:44.674Z,99.99
2023-12-23T07:45:44.668Z,99.99
2023-12-23T07:46:45.391Z,99.99
2023-12-23T07:47:44.693Z,99.99
2023-12-23T07:48:44.683Z,99.99
2023-12-23T07:49:44.679Z,99.99
2023-12-23T07:50:44.650Z,99.99
2023-12-23T07:51:44.660Z,99.99
2023-12-23T07:52:44.682Z,99.99
2023-12-23T07:53:44.762Z,99.99
2023-12-23T07:54:44.633Z,99.99
2023-12-23T07:55:44.643Z,99.99
2023-12-23T07:56:44.585Z,99.99
2023-12-23T07:57:44.638Z,99.99
2023-12-23T07:58:44.607Z,99.99
2023-12-23T07:59:45.516Z,99.99
2023-12-23T08:00:44.600Z,99.99
2023-12-23T08:01:44.579Z,99.99
2023-12-23T08:02:44.569Z,99.99
2023-12-23T08:03:44.605Z,99.99
2023-12-23T08:04:44.590Z,99.99
2023-12-23T08:05:44.588Z,99.99
2023-12-23T08:06:44.549Z,99.99
2023-12-23T08:07:44.786Z,99.99
2023-12-23T08:08:44.550Z,99.99
2023-12-23T08:09:44.503Z,99.99
2023-12-23T08:10:44.751Z,99.99
2023-12-23T08:11:44.489Z,99.99
2023-12-23T08:12:44.477Z,99.99
2023-12-23T08:13:44.753Z,99.99
2023-12-23T08:14:44.515Z,99.99
2023-12-23T08:15:44.465Z,99.99
2023-12-23T08:16:44.531Z,99.99
2023-12-23T08:17:44.472Z,99.99
2023-12-23T08:18:44.593Z,99.99
2023-12-23T08:19:44.457Z,99.99
2023-12-23T08:20:44.434Z,99.99
2023-12-23T08:21:44.442Z,99.99
2023-12-23T08:22:44.447Z,99.99
2023-12-23T08:23:44.480Z,99.69
2023-12-23T08:24:44.450Z,99.99
2023-12-23T08:25:44.523Z,99.99
2023-12-23T08:26:44.481Z,99.79
2023-12-23T08:27:44.396Z,99.85
2023-12-23T08:28:46.645Z,99.74
2023-12-23T08:29:44.400Z,99.54
2023-12-23T08:30:44.448Z,99.54
2023-12-23T08:31:44.404Z,99.23
2023-12-23T08:32:44.464Z,99.39
2023-12-23T08:33:44.579Z,99.70
2023-12-23T08:34:44.487Z,99.54
2023-12-23T08:35:44.336Z,98.57
2023-12-23T08:36:44.309Z,98.67
2023-12-23T08:37:44.340Z,99.23
2023-12-23T08:38:45.498Z,98.77
2023-12-23T08:39:44.390Z,98.67
2023-12-23T08:40:44.332Z,98.46
2023-12-23T08:41:44.286Z,98.25
2023-12-23T08:42:44.295Z,98.36
2023-12-23T08:43:44.459Z,98.36
2023-12-23T08:44:44.306Z,98.15
2023-12-23T08:45:44.319Z,98.46
2023-12-23T08:46:44.321Z,97.95
2023-12-23T08:47:44.305Z,97.69
2023-12-23T08:48:44.420Z,97.53
2023-12-23T08:49:44.306Z,97.53
2023-12-23T08:50:44.239Z,97.39
2023-12-23T08:51:44.226Z,97.39
2023-12-23T08:52:44.252Z,97.08
2023-12-23T08:53:44.368Z,96.97
2023-12-23T08:54:44.237Z,96.88
2023-12-23T08:55:44.238Z,96.88
2023-12-23T08:56:44.200Z,96.97
2023-12-23T08:57:44.176Z,96.88
2023-12-23T08:58:44.255Z,97.28
2023-12-23T08:59:44.167Z,97.49
2023-12-23T09:00:44.228Z,96.56
2023-12-23T09:01:44.181Z,96.97
2023-12-23T09:02:44.200Z,96.52
2023-12-23T09:03:44.310Z,96.83
2023-12-23T09:04:44.160Z,96.88
2023-12-23T09:05:44.253Z,96.67
2023-12-23T09:06:44.125Z,96.88
2023-12-23T09:07:44.252Z,96.93
2023-12-23T09:08:44.190Z,96.88
2023-12-23T09:09:44.104Z,97.49
2023-12-23T09:10:44.128Z,97.44
2023-12-23T09:11:44.229Z,97.14
2023-12-23T09:12:44.093Z,96.97
2023-12-23T09:13:44.125Z,96.83
2023-12-23T09:14:44.080Z,97.34
2023-12-23T09:15:44.070Z,96.83
2023-12-23T09:16:44.119Z,96.93
2023-12-23T09:17:44.175Z,97.03
2023-12-23T09:18:44.120Z,96.52
2023-12-23T09:19:44.082Z,96.93
2023-12-23T09:20:44.072Z,96.21
2023-12-23T09:21:44.038Z,96.21
2023-12-23T09:22:44.583Z,96.17
2023-12-23T09:23:44.978Z,96.31
2023-12-23T09:24:44.015Z,95.96
2023-12-23T09:25:44.026Z,95.90
2023-12-23T09:26:44.102Z,96.47
2023-12-23T09:27:44.034Z,95.86
2023-12-23T09:28:44.067Z,97.09
2023-12-23T09:29:43.990Z,97.19
2023-12-23T09:30:43.993Z,96.17
2023-12-23T09:31:44.087Z,96.27
2023-12-23T09:32:44.445Z,97.14
2023-12-23T09:33:44.033Z,95.86
2023-12-23T09:34:43.979Z,96.27
2023-12-23T09:35:43.934Z,95.75
2023-12-23T09:36:43.953Z,95.96
2023-12-23T09:37:44.018Z,95.96
2023-12-23T09:38:43.971Z,95.86
2023-12-23T09:39:43.910Z,95.65
2023-12-23T09:40:43.990Z,95.65
2023-12-23T09:41:44.014Z,95.65
2023-12-23T09:42:43.934Z,95.75
2023-12-23T09:43:44.015Z,95.55
2023-12-23T09:44:43.918Z,95.75
2023-12-23T09:45:43.906Z,95.65
2023-12-23T09:46:43.985Z,95.96
2023-12-23T09:47:44.080Z,96.02
2023-12-23T09:48:44.121Z,96.37
2023-12-23T09:49:43.885Z,95.71
2023-12-23T09:50:43.861Z,95.65
2023-12-23T09:51:43.991Z,95.96
2023-12-23T09:52:43.862Z,95.61
2023-12-23T09:53:43.964Z,95.71
2023-12-23T09:54:43.817Z,95.65
2023-12-23T09:55:44.107Z,95.55
2023-12-23T09:56:44.124Z,95.65
2023-12-23T09:57:43.803Z,95.86
2023-12-23T09:58:44.181Z,95.86
2023-12-23T09:59:44.331Z,95.75
2023-12-23T10:00:44.786Z,95.65
2023-12-23T10:01:43.797Z,95.75
2023-12-23T10:02:43.878Z,95.65
2023-12-23T10:03:44.065Z,95.75
2023-12-23T10:04:43.763Z,95.34
2023-12-23T10:05:43.964Z,95.61
2023-12-23T10:06:43.748Z,95.61
2023-12-23T10:07:43.755Z,95.86
2023-12-23T10:08:43.752Z,95.92
2023-12-23T10:09:43.704Z,95.40
2023-12-23T10:10:43.720Z,95.40
2023-12-23T10:11:43.699Z,94.89
2023-12-23T10:12:43.703Z,95.30
2023-12-23T10:13:43.740Z,95.40
2023-12-23T10:14:43.689Z,94.89
2023-12-23T10:15:43.717Z,94.48
2023-12-23T10:16:45.299Z,94.89
2023-12-23T10:17:43.804Z,95.05
2023-12-23T10:18:44.164Z,94.99
2023-12-23T10:19:43.758Z,94.89
2023-12-23T10:20:43.642Z,94.68
2023-12-23T10:21:43.627Z,94.99
2023-12-23T10:22:43.670Z,94.68
2023-12-23T10:23:43.634Z,94.02
2023-12-23T10:24:43.624Z,94.58
2023-12-23T10:25:43.717Z,94.58
2023-12-23T10:26:43.596Z,95.20
2023-12-23T10:27:43.598Z,94.84
2023-12-23T10:28:45.565Z,94.68
2023-12-23T10:29:43.594Z,95.40
2023-12-23T10:30:43.638Z,95.30
2023-12-23T10:31:43.613Z,94.89
2023-12-23T10:32:43.638Z,95.05
2023-12-23T10:33:43.635Z,95.25
2023-12-23T10:34:43.546Z,94.99
2023-12-23T10:35:43.760Z,94.74
2023-12-23T10:36:43.615Z,94.99
2023-12-23T10:37:43.629Z,95.30
2023-12-23T10:38:43.570Z,95.46
2023-12-23T10:39:43.534Z,95.97
2023-12-23T10:40:43.516Z,95.71
2023-12-23T10:41:43.546Z,95.61
2023-12-23T10:42:43.485Z,94.89
2023-12-23T10:43:43.520Z,95.20
2023-12-23T10:44:43.476Z,94.78
2023-12-23T10:45:43.477Z,94.99
2023-12-23T10:46:43.482Z,95.05
2023-12-23T10:47:43.691Z,95.36
2023-12-23T10:48:43.544Z,95.97
2023-12-23T10:49:43.441Z,95.67
2023-12-23T10:50:43.439Z,95.71
2023-12-23T10:51:43.467Z,95.81
2023-12-23T10:52:43.456Z,95.71
2023-12-23T10:53:43.410Z,95.92
2023-12-23T10:54:43.402Z,95.97
2023-12-23T10:55:43.466Z,95.87
2023-12-23T10:56:43.414Z,95.30
2023-12-23T10:57:43.384Z,95.77
2023-12-23T10:58:43.462Z,95.36
2023-12-23T10:59:43.380Z,95.40
2023-12-23T11:00:43.402Z,95.56
2023-12-23T11:01:43.437Z,95.46
2023-12-23T11:02:43.365Z,95.25
2023-12-23T11:03:43.448Z,95.46
2023-12-23T11:04:43.395Z,95.77
2023-12-23T11:05:43.377Z,95.87
2023-12-23T11:06:43.356Z,95.77
2023-12-23T11:07:43.362Z,95.56
2023-12-23T11:08:43.424Z,95.87
2023-12-23T11:09:43.369Z,95.67
2023-12-23T11:10:43.520Z,95.15
2023-12-23T11:11:43.423Z,94.84
2023-12-23T11:12:43.316Z,94.74
2023-12-23T11:13:43.348Z,94.80
2023-12-23T11:14:43.299Z,94.90
2023-12-23T11:15:43.269Z,94.95
2023-12-23T11:16:43.330Z,95.10
2023-12-23T11:17:43.290Z,94.95
2023-12-23T11:18:43.466Z,94.59
2023-12-23T11:19:43.291Z,93.77
2023-12-23T11:20:43.258Z,94.29
2023-12-23T11:21:43.269Z,94.29
2023-12-23T11:22:43.318Z,93.98
2023-12-23T11:23:43.234Z,94.90
2023-12-23T11:24:43.225Z,94.70
2023-12-23T11:25:43.253Z,94.80
2023-12-23T11:26:43.329Z,94.90
2023-12-23T11:27:43.196Z,94.74
2023-12-23T11:28:43.247Z,93.98
2023-12-23T11:29:43.229Z,93.98
2023-12-23T11:30:43.431Z,93.87
2023-12-23T11:31:43.309Z,93.98
2023-12-23T11:32:43.277Z,94.18
2023-12-23T11:33:43.226Z,94.29
2023-12-23T11:34:43.251Z,94.39
2023-12-23T11:35:43.166Z,94.90
2023-12-23T11:36:43.142Z,94.18
2023-12-23T11:37:43.207Z,93.98
2023-12-23T11:38:43.468Z,94.49
2023-12-23T11:39:43.111Z,93.67
2023-12-23T11:40:43.223Z,93.98
2023-12-23T11:41:43.193Z,94.18
2023-12-23T11:42:43.093Z,95.10
2023-12-23T11:43:43.210Z,94.18
2023-12-23T11:44:43.106Z,94.59
2023-12-23T11:45:43.074Z,93.67
2023-12-23T11:46:43.164Z,94.39
2023-12-23T11:47:43.104Z,94.08
2023-12-23T11:48:43.178Z,94.18
2023-12-23T11:49:43.098Z,93.67
2023-12-23T11:50:43.131Z,93.77
2023-12-23T11:51:43.059Z,93.77
2023-12-23T11:52:43.062Z,92.95
2023-12-23T11:53:43.216Z,93.36
2023-12-23T11:54:43.016Z,94.18
2023-12-23T11:55:43.181Z,93.26
2023-12-23T11:56:43.008Z,93.67
2023-12-23T11:57:42.989Z,93.67
2023-12-23T11:58:43.157Z,93.87
2023-12-23T11:59:43.026Z,93.36
2023-12-23T12:00:43.014Z,93.46
2023-12-23T12:01:43.050Z,93.77
2023-12-23T12:02:42.970Z,94.08
2023-12-23T12:03:42.992Z,95.21
2023-12-23T12:04:44.985Z,93.98
2023-12-23T12:05:42.998Z,94.18
2023-12-23T12:06:43.006Z,94.59
2023-12-23T12:07:43.179Z,93.98
2023-12-23T12:08:42.976Z,94.90
2023-12-23T12:09:42.950Z,94.59
2023-12-23T12:10:42.933Z,94.29
2023-12-23T12:11:42.957Z,94.39
2023-12-23T12:12:42.902Z,94.49
2023-12-23T12:13:42.885Z,95.10
2023-12-23T12:14:42.925Z,94.39
2023-12-23T12:15:42.904Z,94.64
2023-12-23T12:16:42.885Z,94.39
2023-12-23T12:17:43.076Z,94.14
2023-12-23T12:18:42.998Z,93.87
2023-12-23T12:19:42.901Z,93.87
2023-12-23T12:20:42.849Z,94.39
2023-12-23T12:21:42.837Z,93.98
2023-12-23T12:22:45.534Z,93.77
2023-12-23T12:23:42.976Z,94.39
2023-12-23T12:24:42.847Z,94.39
2023-12-23T12:25:42.838Z,94.08
2023-12-23T12:26:42.806Z,93.98
2023-12-23T12:27:42.803Z,93.98
2023-12-23T12:28:45.420Z,93.98
2023-12-23T12:29:42.861Z,94.18
2023-12-23T12:30:42.807Z,93.98
2023-12-23T12:31:42.784Z,94.34
2023-12-23T12:32:42.844Z,95.10
2023-12-23T12:33:42.862Z,94.49
2023-12-23T12:34:45.229Z,94.90
2023-12-23T12:35:42.742Z,93.73
2023-12-23T12:36:42.735Z,93.16
2023-12-23T12:37:42.731Z,93.32
2023-12-23T12:38:42.742Z,94.14
2023-12-23T12:39:42.760Z,93.98
2023-12-23T12:40:42.745Z,94.14
2023-12-23T12:41:42.719Z,94.29
2023-12-23T12:42:42.699Z,94.59
2023-12-23T12:43:42.707Z,94.29
2023-12-23T12:44:42.688Z,94.80
2023-12-23T12:45:43.241Z,94.70
2023-12-23T12:46:42.681Z,95.01
2023-12-23T12:47:42.870Z,94.59
2023-12-23T12:48:42.719Z,95.01
2023-12-23T12:49:46.465Z,94.59
2023-12-23T12:50:43.753Z,94.90
2023-12-23T12:51:42.645Z,94.76
2023-12-23T12:52:45.675Z,94.49